Time;durP1;ratioP1;P1;durP2;ratioP2;P2;SDS_P1;SDS_P2;PMS_P1;PMS_P2;Temp;Humidity;BMP_temperature;BMP_pressure;BME280_temperature;BME280_humidity;BME280_pressure;Samples;Min_cycle;Max_cycle;Signal;HPM_P1;HPM_P2
2021/10/25 00:01:52;;;;;;;12.57;5.53;;;;;;;8.84;96.80;100918.59;4937232;29;20043;-80
2021/10/25 00:04:20;;;;;;;6.22;3.50;;;;;;;8.78;97.62;100914.44;4938123;29;20044;-82
2021/10/25 00:06:47;;;;;;;4.45;3.50;;;;;;;8.80;97.30;100915.28;4937516;29;20060;-82
2021/10/25 00:09:14;;;;;;;6.13;3.72;;;;;;;8.78;97.19;100911.84;4938138;29;20054;-80
2021/10/25 00:11:41;;;;;;;9.77;6.28;;;;;;;8.75;95.98;100911.97;4937531;29;20079;-82
2021/10/25 00:14:08;;;;;;;5.22;4.43;;;;;;;8.80;95.78;100911.81;4937745;29;20044;-83
2021/10/25 00:16:35;;;;;;;10.00;7.03;;;;;;;8.69;95.92;100919.97;4937551;29;20079;-83
2021/10/25 00:19:04;;;;;;;8.65;5.88;;;;;;;8.59;96.29;100913.34;4937813;29;20091;-81
2021/10/25 00:21:31;;;;;;;6.20;5.25;;;;;;;8.66;96.15;100914.84;4937452;29;20039;-80
2021/10/25 00:23:58;;;;;;;7.85;5.65;;;;;;;8.65;95.95;100910.56;4937774;29;20052;-81
2021/10/25 00:26:25;;;;;;;11.52;5.80;;;;;;;8.62;95.77;100911.47;4937424;29;20043;-81
2021/10/25 00:28:51;;;;;;;10.77;6.15;;;;;;;8.66;95.55;100909.66;4937548;29;20047;-81
2021/10/25 00:31:18;;;;;;;7.38;5.95;;;;;;;8.68;95.80;100907.00;4937892;29;20487;-81
2021/10/25 00:33:46;;;;;;;10.98;5.30;;;;;;;8.65;96.22;100918.34;4937508;29;20574;-81
2021/10/25 00:36:13;;;;;;;8.98;5.13;;;;;;;8.40;97.73;100911.31;4936447;29;20071;-82
2021/10/25 00:38:40;;;;;;;8.95;5.30;;;;;;;8.36;97.86;100907.13;4935689;29;20459;-83
2021/10/25 00:41:09;;;;;;;8.45;5.32;;;;;;;8.45;97.32;100912.91;4936472;29;20052;-82
2021/10/25 00:43:37;;;;;;;7.03;4.85;;;;;;;8.26;99.24;100908.25;4937369;29;20047;-82
2021/10/25 00:46:08;;;;;;;6.68;4.40;;;;;;;8.38;98.81;100909.66;4938563;29;20095;-82
2021/10/25 00:48:37;;;;;;;7.82;5.88;;;;;;;8.36;97.51;100906.25;4939932;29;20044;-82
2021/10/25 00:51:06;;;;;;;7.95;6.05;;;;;;;8.34;97.46;100911.47;4920015;29;20496;-82
2021/10/25 00:53:33;;;;;;;8.05;6.93;;;;;;;8.27;97.34;100911.69;4944849;29;20039;-81
2021/10/25 00:56:04;;;;;;;9.93;7.55;;;;;;;8.18;97.71;100910.22;4947844;29;20071;-82
2021/10/25 00:58:37;;;;;;;7.63;6.13;;;;;;;8.27;97.15;100896.97;4939008;29;20496;-81
2021/10/25 01:01:05;;;;;;;8.13;5.45;;;;;;;8.19;96.78;100887.69;4936023;29;20052;-82
2021/10/25 01:03:35;;;;;;;6.55;5.80;;;;;;;8.32;96.64;100883.84;4917146;29;20044;-82
2021/10/25 01:06:04;;;;;;;8.52;6.32;;;;;;;8.33;96.78;100882.94;4933628;29;20123;-82
2021/10/25 01:08:35;;;;;;;12.23;5.05;;;;;;;8.28;96.74;100883.06;4938177;29;20063;-81
2021/10/25 01:11:02;;;;;;;9.15;5.80;;;;;;;8.32;97.06;100884.69;4929724;29;20466;-82
2021/10/25 01:13:29;;;;;;;8.95;4.60;;;;;;;8.28;96.59;100882.22;4918042;29;20047;-81
2021/10/25 01:15:56;;;;;;;10.20;6.10;;;;;;;8.20;96.91;100877.25;4916841;29;20048;-82
2021/10/25 01:18:23;;;;;;;7.82;5.32;;;;;;;8.24;96.79;100872.81;4935987;29;20068;-81
2021/10/25 01:20:50;;;;;;;6.18;5.15;;;;;;;8.23;96.61;100864.19;4936662;29;20051;-82
2021/10/25 01:23:22;;;;;;;8.57;4.78;;;;;;;8.28;96.53;100867.50;4935988;29;20131;-81
2021/10/25 01:25:50;;;;;;;5.88;5.25;;;;;;;8.26;96.54;100864.09;4935022;29;20134;-82
2021/10/25 01:28:17;;;;;;;5.63;4.50;;;;;;;7.99;98.11;100870.09;4936635;29;20452;-82
2021/10/25 01:30:45;;;;;;;7.57;5.43;;;;;;;7.88;99.26;100866.09;4936375;29;20394;-81
2021/10/25 01:33:15;;;;;;;8.77;5.50;;;;;;;8.11;97.37;100869.75;4935356;29;20055;-82
2021/10/25 01:35:44;;;;;;;6.53;5.38;;;;;;;8.19;97.02;100857.38;4935124;29;20122;-81
2021/10/25 01:38:14;;;;;;;11.60;6.53;;;;;;;8.16;96.91;100861.81;4934613;29;20047;-82
2021/10/25 01:40:41;;;;;;;8.30;6.10;;;;;;;8.18;97.04;100860.88;4935456;29;20044;-82
2021/10/25 01:43:09;;;;;;;7.82;5.97;;;;;;;8.17;96.60;100856.59;4934695;28;20052;-83
2021/10/25 01:45:36;;;;;;;13.80;5.88;;;;;;;8.10;96.66;100855.06;4935619;29;20046;-82
2021/10/25 01:48:04;;;;;;;9.57;6.82;;;;;;;8.10;96.91;100861.13;4933627;29;20507;-82
2021/10/25 01:50:31;;;;;;;8.82;6.10;;;;;;;8.06;97.62;100858.66;4934770;29;20051;-83
2021/10/25 01:53:00;;;;;;;10.88;8.65;;;;;;;8.10;97.29;100855.06;4934726;29;20039;-84
2021/10/25 01:55:29;;;;;;;9.48;6.50;;;;;;;7.99;97.43;100855.41;4935012;29;20084;-84
2021/10/25 01:57:56;;;;;;;12.73;6.55;;;;;;;7.97;97.75;100853.72;4934860;29;20044;-83
2021/10/25 02:00:25;;;;;;;10.95;7.00;;;;;;;7.92;98.04;100848.66;4934886;29;20050;-84
2021/10/25 02:02:52;;;;;;;8.32;6.78;;;;;;;7.82;98.11;100850.66;4935451;29;20103;-84
2021/10/25 02:05:46;;;;;;;7.55;5.72;;;;;;;7.64;99.33;100848.63;4935588;29;20051;-84
2021/10/25 02:08:14;;;;;;;10.85;6.22;;;;;;;7.66;99.70;100844.22;4934902;29;20104;-84
2021/10/25 02:10:57;;;;;;;12.30;6.10;;;;;;;7.54;99.98;100849.75;4934259;29;20569;-84
2021/10/25 02:13:25;;;;;;;12.50;5.90;;;;;;;7.59;99.75;100840.09;4934600;29;20135;-84
2021/10/25 02:15:53;;;;;;;8.55;6.20;;;;;;;7.57;99.69;100839.31;4934322;29;20100;-83
2021/10/25 02:18:22;;;;;;;9.68;7.03;;;;;;;7.53;100.00;100837.69;4934713;29;20574;-83
2021/10/25 02:20:50;;;;;;;8.55;6.40;;;;;;;7.49;100.00;100844.69;4934383;29;20039;-81
2021/10/25 02:23:22;;;;;;;13.50;5.93;;;;;;;7.45;100.00;100844.81;4934928;29;20059;-82
2021/10/25 02:25:54;;;;;;;9.80;7.47;;;;;;;7.47;100.00;100843.06;4934705;29;20058;-82
2021/10/25 02:28:22;;;;;;;10.98;6.32;;;;;;;7.45;100.00;100837.88;4935028;29;20063;-81
2021/10/25 02:30:55;;;;;;;14.30;6.53;;;;;;;7.44;100.00;100832.75;4934635;29;20550;-83
2021/10/25 02:33:23;;;;;;;7.68;5.55;;;;;;;7.47;100.00;100835.28;4934911;29;20043;-83
2021/10/25 02:35:50;;;;;;;10.38;7.03;;;;;;;7.49;100.00;100834.31;4934779;29;20040;-82
2021/10/25 02:38:20;;;;;;;8.27;5.53;;;;;;;7.58;100.00;100831.47;4934515;29;20519;-81
2021/10/25 02:40:53;;;;;;;8.90;6.40;;;;;;;7.57;100.00;100829.78;4942392;29;20027;-83
2021/10/25 02:43:22;;;;;;;11.25;6.38;;;;;;;7.58;100.00;100833.22;4952191;29;20031;-81
2021/10/25 02:45:52;;;;;;;9.70;5.50;;;;;;;7.58;100.00;100833.22;4953613;29;20027;-81
2021/10/25 02:48:19;;;;;;;6.18;5.07;;;;;;;7.54;100.00;100824.66;4954063;29;20399;-81
2021/10/25 02:50:46;;;;;;;11.10;6.00;;;;;;;7.62;100.00;100829.66;4954259;29;20024;-83
2021/10/25 02:53:14;;;;;;;9.13;6.00;;;;;;;7.61;100.00;100823.59;4953717;29;20044;-83
2021/10/25 02:55:41;;;;;;;9.30;6.68;;;;;;;7.63;100.00;100825.31;4951611;29;20112;-83
2021/10/25 02:58:07;;;;;;;10.65;6.30;;;;;;;7.59;100.00;100830.56;4946077;29;20050;-82
2021/10/25 03:00:35;;;;;;;7.45;6.03;;;;;;;7.63;100.00;100825.31;4948189;29;20050;-82
2021/10/25 03:03:06;;;;;;;8.30;5.75;;;;;;;7.62;100.00;100814.09;4945994;29;20044;-83
2021/10/25 03:05:34;;;;;;;10.60;6.80;;;;;;;7.64;100.00;100809.69;4944660;29;20066;-82
2021/10/25 03:08:01;;;;;;;14.63;7.45;;;;;;;7.70;100.00;100817.28;4939291;29;20079;-83
2021/10/25 03:10:28;;;;;;;9.48;5.10;;;;;;;7.70;100.00;100806.91;4934080;29;20110;-81
2021/10/25 03:12:55;;;;;;;7.30;5.55;;;;;;;7.65;100.00;100803.59;4935934;29;20044;-82
2021/10/25 03:15:22;;;;;;;7.63;5.90;;;;;;;7.71;100.00;100803.41;4935105;29;20047;-82
2021/10/25 03:17:50;;;;;;;7.75;5.47;;;;;;;7.73;100.00;100801.66;4933712;29;20055;-82
2021/10/25 03:20:29;;;;;;;7.82;5.95;;;;;;;7.84;100.00;100793.53;4933593;29;20075;-80
2021/10/25 03:22:56;;;;;;;11.10;5.60;;;;;;;7.87;100.00;100801.22;4934197;29;20044;-81
2021/10/25 03:25:23;;;;;;;9.65;5.53;;;;;;;7.87;100.00;100803.81;4934666;29;20061;-81
2021/10/25 03:27:51;;;;;;;9.35;5.28;;;;;;;7.78;100.00;100809.31;4933757;29;20047;-80
2021/10/25 03:30:18;;;;;;;10.23;6.10;;;;;;;7.68;100.00;100803.53;4934049;29;20051;-82
2021/10/25 03:32:50;;;;;;;12.57;6.40;;;;;;;7.63;100.00;100808.00;4949584;29;20040;-82
2021/10/25 03:35:38;;;;;;;6.28;5.45;;;;;;;7.70;100.00;100811.25;4934376;29;20048;-82
2021/10/25 03:38:10;;;;;;;8.60;5.05;;;;;;;7.76;100.00;100811.91;4933481;29;20098;-83
2021/10/25 03:40:37;;;;;;;8.38;5.75;;;;;;;7.75;100.00;100801.59;4933683;29;20052;-82
2021/10/25 03:43:04;;;;;;;10.52;6.53;;;;;;;7.76;100.00;100805.88;4931346;29;20038;-83
2021/10/25 03:45:38;;;;;;;9.65;5.35;;;;;;;7.78;100.00;100804.13;4917402;29;20091;-81
2021/10/25 03:48:29;;;;;;;6.68;5.10;;;;;;;7.77;100.00;100803.22;4928978;29;20846;-82
2021/10/25 03:50:56;;;;;;;9.85;6.57;;;;;;;7.73;100.00;100799.06;4933407;29;20483;-82
2021/10/25 03:53:50;;;;;;;9.45;6.55;;;;;;;7.65;100.00;100798.41;4939445;23;20056;-77
2021/10/25 03:56:32;;;;;;;6.35;5.47;;;;;;;7.57;100.00;100793.47;4952070;29;20167;-77
2021/10/25 04:29:25;;;;;;;7.53;6.40;;;;;;;7.30;100.00;100786.47;4935397;29;20513;-77
2021/10/25 04:31:52;;;;;;;8.85;5.70;;;;;;;7.25;100.00;100777.97;4934665;29;20448;-77
2021/10/25 04:34:20;;;;;;;7.22;5.35;;;;;;;7.20;100.00;100775.50;4919446;29;20455;-77
2021/10/25 04:36:47;;;;;;;10.65;5.78;;;;;;;7.31;100.00;100773.44;4917564;29;20414;-76
2021/10/25 04:39:19;;;;;;;11.30;6.78;;;;;;;7.41;100.00;100778.38;4930921;29;20055;-77
2021/10/25 04:41:47;;;;;;;10.38;5.88;;;;;;;7.39;100.00;100770.63;4927978;29;20143;-76
2021/10/25 04:44:14;;;;;;;8.43;6.28;;;;;;;7.31;100.00;100768.25;4934766;29;20072;-77
2021/10/25 04:46:42;;;;;;;9.23;5.75;;;;;;;7.26;100.00;100759.75;4934288;29;20043;-81
2021/10/25 04:49:08;;;;;;;8.52;6.70;;;;;;;7.30;100.00;100768.31;4934616;29;20143;-80
2021/10/25 04:51:55;;;;;;;7.85;5.28;;;;;;;7.29;100.00;100758.81;4935898;29;20051;-77
2021/10/25 04:54:26;;;;;;;8.05;5.35;;;;;;;7.19;100.00;100768.63;4934102;29;20133;-77
2021/10/25 04:56:54;;;;;;;8.82;5.40;;;;;;;7.15;100.00;100761.81;4931958;29;20134;-78
2021/10/25 04:59:21;;;;;;;8.75;4.75;;;;;;;7.13;100.00;100765.31;4934515;29;20052;-77
2021/10/25 05:01:49;;;;;;;10.65;5.82;;;;;;;7.06;100.00;100772.41;4933290;29;20036;-78
2021/10/25 05:04:16;;;;;;;9.27;4.93;;;;;;;6.78;100.00;100765.38;4925917;29;20094;-77
2021/10/25 05:06:43;;;;;;;6.07;4.88;;;;;;;6.90;100.00;100766.78;4928214;29;20047;-76
2021/10/25 05:09:10;;;;;;;7.50;5.35;;;;;;;6.99;100.00;100763.97;4934947;29;20071;-77
2021/10/25 05:11:38;;;;;;;7.20;5.60;;;;;;;6.98;100.00;100767.44;4935055;29;20039;-77
2021/10/25 05:14:05;;;;;;;11.57;7.57;;;;;;;7.01;100.00;100766.50;4933875;29;20048;-77
2021/10/25 05:16:31;;;;;;;9.15;5.45;;;;;;;7.00;100.00;100772.59;4934622;29;20074;-77
2021/10/25 05:19:08;;;;;;;14.52;7.03;;;;;;;7.03;100.00;100767.31;4935784;29;20118;-77
2021/10/25 05:21:38;;;;;;;7.95;6.90;;;;;;;7.08;100.00;100761.13;4934482;29;20135;-77
2021/10/25 05:24:05;;;;;;;11.48;6.70;;;;;;;7.11;100.00;100757.59;4934575;29;20051;-77
2021/10/25 05:26:35;;;;;;;7.72;6.82;;;;;;;7.14;100.00;100749.75;4932197;29;20107;-76
2021/10/25 05:29:02;;;;;;;11.40;6.63;;;;;;;7.22;100.00;100750.34;4933085;29;20573;-77
2021/10/25 05:31:29;;;;;;;7.43;5.70;;;;;;;7.25;100.00;100750.28;4926536;29;20066;-80
2021/10/25 05:33:58;;;;;;;10.05;5.57;;;;;;;7.23;100.00;100752.06;4925578;29;20418;-80
2021/10/25 05:36:26;;;;;;;7.90;6.07;;;;;;;7.28;100.00;100742.41;4931691;29;20122;-82
2021/10/25 05:38:53;;;;;;;6.88;5.22;;;;;;;7.40;100.00;100751.56;4931073;29;20055;-80
2021/10/25 05:41:21;;;;;;;8.68;6.15;;;;;;;7.47;100.00;100742.72;4931784;29;20060;-83
2021/10/25 05:43:47;;;;;;;9.25;6.72;;;;;;;7.46;100.00;100746.22;4930975;29;20495;-82
2021/10/25 05:46:14;;;;;;;11.10;5.55;;;;;;;7.50;100.00;100747.81;4931501;29;21042;-83
2021/10/25 05:48:42;;;;;;;10.15;6.78;;;;;;;7.51;100.00;100743.47;4927094;29;20051;-82
2021/10/25 05:51:10;;;;;;;10.35;6.80;;;;;;;7.49;100.00;100751.31;4929668;29;20048;-84
2021/10/25 05:53:38;;;;;;;10.77;6.10;;;;;;;7.38;100.00;100752.53;4932297;29;20055;-82
2021/10/25 05:56:06;;;;;;;14.73;7.15;;;;;;;7.44;100.00;100754.94;4932693;29;20091;-82
2021/10/25 05:58:34;;;;;;;9.52;6.45;;;;;;;7.44;100.00;100757.53;4932787;29;20383;-83
2021/10/25 06:01:05;;;;;;;7.72;5.35;;;;;;;7.48;100.00;100760.00;4932604;29;20043;-79
2021/10/25 06:03:45;;;;;;;8.55;6.70;;;;;;;7.67;100.00;100762.91;4914629;29;20048;-81
2021/10/25 06:06:13;;;;;;;13.85;7.70;;;;;;;7.70;100.00;100765.41;4931366;29;20082;-83
2021/10/25 06:08:41;;;;;;;12.45;7.70;;;;;;;7.78;100.00;100768.63;4926297;29;20052;-82
2021/10/25 06:11:08;;;;;;;13.95;5.75;;;;;;;7.80;100.00;100766.81;4933035;29;20075;-84
2021/10/25 06:13:40;;;;;;;11.18;6.45;;;;;;;7.96;100.00;100764.59;4934130;29;20040;-90
2021/10/25 06:18:41;;;;;;;7.22;6.30;;;;;;;7.91;100.00;100770.84;4940334;28;20050;-85
2021/10/25 06:21:09;;;;;;;9.75;6.22;;;;;;;8.16;100.00;100779.56;4925331;29;20036;-85
2021/10/25 06:23:38;;;;;;;8.10;5.82;;;;;;;8.29;100.00;100769.63;4928724;29;20047;-83
2021/10/25 06:26:18;;;;;;;9.75;7.10;;;;;;;8.63;99.37;100764.22;4924649;29;20055;-85
2021/10/25 06:28:45;;;;;;;12.60;5.85;;;;;;;8.78;97.32;100763.69;4931895;29;20470;-84
2021/10/25 06:31:12;;;;;;;10.35;6.35;;;;;;;8.75;97.51;100765.56;4925368;29;20067;-84
2021/10/25 06:34:03;;;;;;;9.43;7.72;;;;;;;8.48;99.04;100770.78;4925669;29;20592;-81
2021/10/25 06:36:33;;;;;;;13.52;7.15;;;;;;;8.41;100.00;100769.25;4931039;29;20474;-88
2021/10/25 06:39:22;;;;;;;13.88;7.57;;;;;;;8.61;98.84;100766.00;4926384;29;20039;-85
2021/10/25 06:41:56;;;;;;;16.10;8.23;;;;;;;8.46;97.68;100754.38;4930330;29;20134;-83
2021/10/25 06:44:55;;;;;;;19.40;8.55;;;;;;;8.54;97.69;100759.31;4925521;29;20044;-86
2021/10/25 06:47:27;;;;;;;14.85;7.75;;;;;;;8.67;96.56;100760.59;4932494;29;20127;-79
2021/10/25 06:49:56;;;;;;;14.30;9.30;;;;;;;8.70;95.85;100767.47;4932124;29;20790;-80
2021/10/25 06:52:23;;;;;;;11.90;8.07;;;;;;;8.62;96.41;100778.09;4925851;29;20110;-83
2021/10/25 06:54:51;;;;;;;11.73;8.02;;;;;;;8.81;95.19;100768.78;4929859;29;20043;-90
2021/10/25 06:57:20;;;;;;;10.20;7.47;;;;;;;9.00;94.09;100774.22;4923200;29;20064;-87
2021/10/25 06:59:50;;;;;;;17.45;7.75;;;;;;;9.21;92.07;100767.38;4930012;29;20095;-85
2021/10/25 07:02:17;;;;;;;14.30;7.90;;;;;;;9.49;90.96;100772.44;4928782;29;20147;-88
2021/10/25 07:04:48;;;;;;;14.80;8.35;;;;;;;9.54;91.17;100773.13;4932071;29;20063;-83
2021/10/25 07:07:17;;;;;;;19.35;8.77;;;;;;;9.70;90.73;100778.59;4930926;29;20050;-90
2021/10/25 07:09:45;;;;;;;15.77;7.63;;;;;;;9.83;89.94;100782.41;4928711;29;20134;-85
2021/10/25 07:12:13;;;;;;;17.65;10.40;;;;;;;9.67;90.19;100783.91;4929053;29;20036;-86
2021/10/25 07:14:41;;;;;;;19.98;8.93;;;;;;;9.77;89.72;100781.81;4930309;29;20504;-83
2021/10/25 07:20:17;;;;;;;13.68;7.72;;;;;;;10.19;86.36;100781.91;4932059;29;20052;-83
2021/10/25 07:59:46;;;;;;;11.05;6.63;;;;;;;10.91;81.41;100800.66;4933766;29;20075;-81
2021/10/25 08:05:15;;;;;;;18.90;8.57;;;;;;;11.15;80.85;100803.97;4934642;29;20091;-81
2021/10/25 08:07:50;;;;;;;8.25;6.13;;;;;;;11.07;80.58;100806.06;4934337;29;20110;-81
2021/10/25 08:10:28;;;;;;;18.88;6.78;;;;;;;11.24;80.13;100805.34;4934963;29;20048;-82
2021/10/25 08:13:00;;;;;;;12.48;6.90;;;;;;;11.14;80.28;100807.50;4930778;29;20047;-80
2021/10/25 08:15:36;;;;;;;9.57;6.90;;;;;;;11.18;78.28;100803.81;4931722;29;20047;-80
2021/10/25 08:18:06;;;;;;;9.60;6.55;;;;;;;11.40;75.74;100808.09;4934959;29;20059;-80
2021/10/25 08:20:33;;;;;;;9.35;7.22;;;;;;;11.20;76.43;100809.00;4934391;29;20130;-78
2021/10/25 08:23:02;;;;;;;11.27;7.30;;;;;;;11.96;72.11;100802.94;4934341;29;20505;-79
2021/10/25 08:25:32;;;;;;;11.55;7.38;;;;;;;11.92;71.52;100801.38;4931827;29;20114;-80
2021/10/25 08:28:06;;;;;;;;;;;;;;;12.48;69.51;100804.84;4920729;29;20040;-82
2021/10/25 08:30:33;;;;;;;12.52;7.22;;;;;;;12.20;68.47;100805.34;4934424;29;20005;-82
2021/10/25 08:33:27;;;;;;;8.68;6.95;;;;;;;11.97;70.24;100799.41;4933640;29;20470;-83
2021/10/25 08:36:11;;;;;;;12.75;7.80;;;;;;;11.52;70.01;100791.91;4927959;29;20051;-83
2021/10/25 08:41:45;;;;;;;12.75;6.68;;;;;;;11.89;65.70;100796.31;4934052;29;20051;-81
2021/10/25 08:44:16;;;;;;;8.93;6.28;;;;;;;11.77;64.86;100783.78;4934019;29;20103;-80
2021/10/25 08:46:51;;;;;;;9.88;7.50;;;;;;;12.16;64.26;100788.09;4934681;29;20091;-79
2021/10/25 08:49:19;;;;;;;9.93;6.57;;;;;;;12.27;63.48;100784.06;4934651;29;20036;-82
2021/10/25 08:51:48;;;;;;;9.52;6.68;;;;;;;13.17;61.65;100773.41;4925331;29;20254;-81
2021/10/25 08:54:18;;;;;;;8.07;6.25;;;;;;;12.54;61.01;100781.84;4930435;29;20039;-79
2021/10/25 08:56:49;;;;;;;11.57;6.30;;;;;;;12.60;60.91;100788.53;4933548;29;20076;-80
2021/10/25 08:59:16;;;;;;;8.27;6.50;;;;;;;12.48;61.18;100790.00;4926286;29;20040;-82
2021/10/25 09:01:46;;;;;;;9.38;6.70;;;;;;;13.46;58.82;100786.75;4932166;29;20134;-79
2021/10/25 09:04:14;;;;;;;10.55;7.18;;;;;;;13.77;57.29;100778.09;4935348;29;20044;-80
2021/10/25 09:06:54;;;;;;;8.77;6.00;;;;;;;13.32;58.60;100771.81;4933483;29;20042;-81
2021/10/25 09:09:26;;;;;;;7.50;5.90;;;;;;;12.79;60.06;100778.84;4932331;29;20138;-81
2021/10/25 09:12:02;;;;;;;7.53;5.45;;;;;;;13.89;56.22;100778.25;4927866;29;20510;-81
2021/10/25 09:14:33;;;;;;;6.28;5.20;;;;;;;14.08;55.11;100767.59;4927785;29;20055;-80
2021/10/25 09:17:09;;;;;;;7.25;5.80;;;;;;;13.27;56.17;100769.44;4931500;29;20051;-79
2021/10/25 09:20:03;;;;;;;11.80;5.63;;;;;;;12.98;56.52;100778.75;4932756;29;20577;-82
2021/10/25 09:22:30;;;;;;;7.53;5.85;;;;;;;13.06;56.90;100773.97;4932658;29;20143;-82
2021/10/25 09:24:58;;;;;;;6.28;5.68;;;;;;;13.36;55.79;100775.94;4930975;29;20036;-84
2021/10/25 09:27:45;;;;;;;7.43;5.13;;;;;;;12.76;52.90;100768.53;4933049;29;20047;-79
2021/10/25 09:30:39;;;;;;;6.97;4.45;;;;;;;12.45;54.25;100776.22;4934489;29;20318;-82
2021/10/25 09:33:08;;;;;;;8.05;4.82;;;;;;;12.72;54.08;100771.38;4933077;29;20071;-83
2021/10/25 09:35:46;;;;;;;6.70;4.22;;;;;;;12.84;54.55;100771.63;4932573;29;20052;-86
2021/10/25 09:38:25;;;;;;;7.75;5.13;;;;;;;13.19;54.16;100771.56;4934480;29;20047;-84
2021/10/25 09:49:33;;;;;;;8.85;5.90;;;;;;;13.67;54.00;100774.28;4926821;29;20134;-83
2021/10/25 09:52:02;;;;;;;11.43;5.78;;;;;;;14.44;52.74;100770.84;4929717;29;20139;-82
2021/10/25 09:54:33;;;;;;;10.05;5.60;;;;;;;13.35;54.43;100763.78;4935563;29;20066;-83
2021/10/25 09:57:14;;;;;;;9.75;6.25;;;;;;;13.63;55.24;100755.25;4938281;29;20054;-80
2021/10/25 10:00:01;;;;;;;8.10;4.93;;;;;;;13.28;55.16;100762.41;4934569;29;20087;-79
2021/10/25 10:02:40;;;;;;;12.65;7.43;;;;;;;13.02;57.32;100761.13;4936358;29;20053;-79
2021/10/25 10:05:13;;;;;;;8.77;5.75;;;;;;;12.91;56.97;100761.69;4929843;29;20039;-80
2021/10/25 10:07:42;;;;;;;7.10;5.55;;;;;;;13.29;56.41;100761.47;4933752;29;20538;-82
2021/10/25 10:10:21;;;;;;;8.30;6.00;;;;;;;13.79;54.43;100755.28;4932078;29;20036;-83
2021/10/25 10:12:56;;;;;;;7.10;5.22;;;;;;;14.06;53.60;100758.13;4930669;29;20130;-84
2021/10/25 10:15:31;;;;;;;9.60;5.63;;;;;;;13.34;55.67;100755.06;4931613;29;20434;-82
2021/10/25 10:18:21;;;;;;;9.65;5.88;;;;;;;13.86;53.75;100756.63;4934982;29;20051;-82
2021/10/25 10:21:12;;;;;;;7.63;5.28;;;;;;;14.07;53.69;100752.81;4939391;29;20065;-82
2021/10/25 10:23:44;;;;;;;6.25;5.65;;;;;;;13.25;55.14;100754.72;4935218;29;20039;-83
2021/10/25 10:26:14;;;;;;;6.78;6.05;;;;;;;12.85;56.22;100752.38;4929156;29;20517;-83
2021/10/25 10:28:51;;;;;;;8.32;5.70;;;;;;;12.70;57.07;100753.16;4929593;29;20051;-83
2021/10/25 10:31:25;;;;;;;10.35;5.63;;;;;;;13.47;54.39;100757.03;4933432;28;20093;-84
2021/10/25 10:34:19;;;;;;;9.55;5.57;;;;;;;12.99;55.90;100738.56;4925295;29;20051;-82
2021/10/25 10:36:55;;;;;;;7.18;5.45;;;;;;;13.58;54.50;100737.22;4939005;29;20128;-83
2021/10/25 10:39:39;;;;;;;8.52;5.90;;;;;;;14.55;51.48;100739.63;4925447;29;20047;-83
2021/10/25 10:42:41;;;;;;;10.43;5.78;;;;;;;14.13;51.91;100735.91;4938015;29;20191;-82
2021/10/25 10:45:17;;;;;;;8.32;6.50;;;;;;;13.80;53.05;100734.25;4939384;29;20051;-85
2021/10/25 10:48:24;;;;;;;5.47;4.97;;;;;;;14.39;51.80;100731.78;4934326;29;20051;-84
2021/10/25 10:51:05;;;;;;;11.50;5.78;;;;;;;15.00;50.39;100722.91;4935157;29;20047;-85
2021/10/25 10:53:39;;;;;;;7.72;5.15;;;;;;;13.93;52.17;100730.94;4938641;29;20458;-84
2021/10/25 10:56:28;;;;;;;8.32;5.82;;;;;;;13.56;53.54;100725.94;4937723;29;20120;-84
2021/10/25 11:01:37;;;;;;;9.23;5.70;;;;;;;13.75;52.96;100731.03;4937456;29;20039;-84
2021/10/25 11:04:07;;;;;;;9.13;5.20;;;;;;;13.98;52.92;100719.25;4930396;28;20111;-81
2021/10/25 11:06:35;;;;;;;9.82;5.18;;;;;;;14.38;52.77;100706.47;4932280;29;20067;-88
2021/10/25 11:09:10;;;;;;;9.07;5.38;;;;;;;14.00;53.16;100711.28;4931709;29;20047;-85
2021/10/25 11:11:39;;;;;;;6.25;5.15;;;;;;;14.47;51.53;100713.84;4926117;29;20126;-81
2021/10/25 11:14:13;;;;;;;7.88;5.18;;;;;;;13.69;53.57;100707.78;4932092;29;20569;-88
2021/10/25 11:19:11;;;;;;;5.63;5.00;;;;;;;14.62;50.59;100694.56;4930795;29;20130;-88
2021/10/25 11:21:40;;;;;;;5.10;4.60;;;;;;;14.18;51.13;100699.78;4931233;29;20494;-86
2021/10/25 11:24:13;;;;;;;5.57;4.30;;;;;;;14.10;50.85;100696.72;4930763;29;20043;-79
2021/10/25 11:26:43;;;;;;;8.50;4.40;;;;;;;14.35;50.96;100696.16;4933410;29;20048;-84
2021/10/25 11:29:16;;;;;;;7.57;5.70;;;;;;;13.70;54.24;100691.16;4929673;29;20044;-85
2021/10/25 11:31:52;;;;;;;8.70;4.95;;;;;;;13.75;54.85;100696.97;4928652;29;20135;-82
2021/10/25 11:34:27;;;;;;;11.65;5.13;;;;;;;14.32;53.66;100691.09;4927111;29;20494;-84
2021/10/25 11:37:06;;;;;;;8.27;5.65;;;;;;;15.09;51.39;100687.38;4929971;29;20063;-82
2021/10/25 11:39:41;;;;;;;6.93;4.95;;;;;;;14.70;50.76;100680.13;4929668;29;20043;-85
2021/10/25 11:42:11;;;;;;;8.30;5.43;;;;;;;14.27;52.27;100677.41;4930192;29;20054;-86
2021/10/25 11:44:40;;;;;;;7.45;4.85;;;;;;;13.44;53.93;100681.25;4931330;29;20067;-85
2021/10/25 11:47:24;;;;;;;8.25;4.88;;;;;;;14.45;52.20;100680.75;4928429;29;20538;-92
2021/10/25 11:49:59;;;;;;;5.20;4.20;;;;;;;14.70;50.47;100665.25;4928891;29;20565;-87
2021/10/25 11:52:33;;;;;;;7.20;4.00;;;;;;;14.82;51.25;100671.53;4892542;29;1190480;-91
2021/10/25 11:55:00;;;;;;;6.35;4.57;;;;;;;14.58;52.36;100666.81;4930517;29;20159;-87
2021/10/25 11:57:27;;;;;;;4.78;4.32;;;;;;;14.46;52.22;100671.94;4931756;29;20471;-89
2021/10/25 11:59:59;;;;;;;9.98;4.22;;;;;;;16.02;48.60;100656.94;4932646;29;20043;-87
2021/10/25 12:02:29;;;;;;;7.25;4.15;;;;;;;15.18;49.92;100660.56;4932355;29;20166;-91
2021/10/25 12:04:56;;;;;;;6.38;4.22;;;;;;;14.75;51.58;100651.84;4936989;29;20055;-87
2021/10/25 12:07:23;;;;;;;5.95;4.10;;;;;;;14.72;51.98;100650.25;4936483;28;20047;-90
2021/10/25 12:10:02;;;;;;;9.75;4.72;;;;;;;14.51;52.07;100641.06;4943836;28;20050;-91
2021/10/25 12:12:33;;;;;;;7.82;5.03;;;;;;;14.63;53.65;100646.41;4937183;29;20050;-87
2021/10/25 12:15:02;;;;;;;6.18;4.65;;;;;;;14.22;54.55;100642.72;4937040;28;20568;-90
2021/10/25 12:17:33;;;;;;;5.13;3.85;;;;;;;14.75;54.30;100641.34;4932313;29;20088;-89
2021/10/25 12:20:01;;;;;;;7.32;4.15;;;;;;;15.06;54.03;100635.88;4935881;29;20496;-91
2021/10/25 12:22:27;;;;;;;8.57;4.32;;;;;;;15.11;54.26;100628.56;4938044;29;20106;-93
2021/10/25 12:24:58;;;;;;;9.88;4.50;;;;;;;13.73;58.94;100635.09;4940394;29;20081;-92
2021/10/25 12:27:42;;;;;;;11.07;5.18;;;;;;;14.36;57.12;100625.25;4931996;29;20048;-87
2021/10/25 12:30:29;;;;;;;6.70;4.95;;;;;;;14.83;56.02;100621.56;4936285;29;20078;-88
2021/10/25 12:33:02;;;;;;;7.80;5.22;;;;;;;14.11;57.60;100620.66;4935677;29;20094;-87
2021/10/25 12:35:49;;;;;;;6.88;5.35;;;;;;;13.80;58.58;100612.88;4939976;29;20040;-90
2021/10/25 12:38:19;;;;;;;8.35;5.35;;;;;;;14.32;57.24;100596.69;4934033;29;20055;-94
2021/10/25 12:41:00;;;;;;;6.40;4.93;;;;;;;14.30;58.40;100598.56;4944178;28;20060;-92
2021/10/25 12:43:44;;;;;;;6.93;5.32;;;;;;;13.58;60.84;100601.00;4928407;29;20441;-94
2021/10/25 12:46:18;;;;;;;16.38;5.13;;;;;;;13.54;60.59;100594.25;4934142;29;20040;-86
2021/10/25 12:48:48;;;;;;;8.02;5.18;;;;;;;13.50;61.56;100579.63;4936945;29;20625;-87
2021/10/25 12:51:16;;;;;;;11.25;5.30;;;;;;;13.89;60.52;100588.72;4936399;29;20044;-89
2021/10/25 12:53:46;;;;;;;10.40;4.95;;;;;;;14.07;60.07;100577.19;4936739;29;20107;-91
2021/10/25 12:56:24;;;;;;;14.55;5.68;;;;;;;14.60;58.46;100586.25;4932743;29;20466;-90
2021/10/25 12:59:08;;;;;;;21.00;6.00;;;;;;;13.75;60.25;100588.72;4940979;29;20043;-93
2021/10/25 13:01:35;;;;;;;8.68;4.78;;;;;;;13.97;59.91;100589.13;4942136;29;20067;-86
2021/10/25 13:04:05;;;;;;;10.82;5.45;;;;;;;13.70;60.10;100593.38;4940233;28;20039;-85
2021/10/25 13:06:35;;;;;;;7.22;4.70;;;;;;;13.35;60.93;100589.19;4937359;29;20106;-85
2021/10/25 13:09:10;;;;;;;11.70;5.43;;;;;;;13.60;60.16;100586.03;4934779;28;20055;-88
2021/10/25 13:11:38;;;;;;;11.60;4.72;;;;;;;13.66;60.76;100584.00;4938118;29;20492;-88
2021/10/25 13:14:08;;;;;;;10.05;5.68;;;;;;;13.68;59.58;100585.56;4938434;28;20620;-85
2021/10/25 13:16:43;;;;;;;8.20;6.10;;;;;;;13.26;61.74;100583.59;4934513;29;20048;-85
2021/10/25 13:19:13;;;;;;;15.57;5.38;;;;;;;13.31;61.83;100581.56;4931041;29;20044;-88